createdAt,value
2018-12-18T00:01:55.011Z,20.30
2018-12-18T00:04:22.613Z,19.30
2018-12-18T00:06:53.555Z,16.17
2018-12-18T00:09:22.168Z,19.87
2018-12-18T00:11:49.751Z,17.43
2018-12-18T00:14:17.199Z,21.50
2018-12-18T00:16:47.738Z,19.87
2018-12-18T00:19:15.202Z,18.20
2018-12-18T00:21:42.629Z,16.13
2018-12-18T00:24:10.086Z,18.10
2018-12-18T00:26:40.742Z,16.60
2018-12-18T00:29:08.200Z,13.90
2018-12-18T00:31:35.664Z,13.77
2018-12-18T00:34:03.139Z,15.70
2018-12-18T00:36:33.596Z,13.67
2018-12-18T00:39:01.105Z,15.00
2018-12-18T00:41:28.577Z,18.43
2018-12-18T00:43:56.071Z,13.90
2018-12-18T00:46:26.594Z,17.53
2018-12-18T00:48:54.045Z,10.27
2018-12-18T00:51:21.475Z,9.67
2018-12-18T00:53:48.918Z,7.90
2018-12-18T00:56:19.954Z,9.60
2018-12-18T00:58:47.383Z,10.73
2018-12-18T01:01:14.850Z,8.13
2018-12-18T01:03:42.300Z,9.07
2018-12-18T01:06:15.442Z,7.50
2018-12-18T01:08:42.882Z,7.80
2018-12-18T01:11:10.302Z,10.20
2018-12-18T01:13:37.759Z,9.37
2018-12-18T01:16:08.635Z,14.53
2018-12-18T01:18:36.071Z,13.73
2018-12-18T01:21:03.555Z,14.90
2018-12-18T01:23:31.070Z,15.00
2018-12-18T01:26:01.735Z,12.40
2018-12-18T01:28:29.174Z,10.80
2018-12-18T01:30:56.617Z,13.30
2018-12-18T01:33:24.060Z,15.97
2018-12-18T01:35:54.415Z,14.50
2018-12-18T01:38:21.860Z,16.60
2018-12-18T01:40:49.298Z,15.37
2018-12-18T01:43:16.786Z,15.33
2018-12-18T01:45:47.335Z,13.50
2018-12-18T01:48:14.793Z,15.23
2018-12-18T01:50:42.267Z,9.50
2018-12-18T01:53:09.695Z,9.97
2018-12-18T01:55:40.123Z,10.83
2018-12-18T01:58:07.562Z,8.60
2018-12-18T02:00:35.000Z,12.27
2018-12-18T02:03:02.428Z,14.73
2018-12-18T02:05:33.291Z,14.40
2018-12-18T02:08:00.721Z,14.83
2018-12-18T02:10:28.158Z,14.93
2018-12-18T02:12:55.624Z,20.77
2018-12-18T02:15:26.334Z,17.47
2018-12-18T02:17:53.763Z,14.07
2018-12-18T02:20:21.268Z,20.00
2018-12-18T02:22:48.848Z,25.93
2018-12-18T02:25:16.305Z,19.53
2018-12-18T02:27:43.734Z,18.33
2018-12-18T02:30:11.185Z,18.87
2018-12-18T02:32:38.655Z,18.07
2018-12-18T02:35:06.112Z,23.17
2018-12-18T02:37:37.068Z,15.27
2018-12-18T02:40:05.983Z,20.27
2018-12-18T02:42:33.489Z,17.07
2018-12-18T02:45:00.968Z,18.33
2018-12-18T02:47:32.237Z,20.43
2018-12-18T02:49:59.766Z,15.37
2018-12-18T02:52:27.235Z,17.67
2018-12-18T02:54:54.983Z,14.23
2018-12-18T02:57:26.019Z,19.40
2018-12-18T02:59:53.469Z,15.97
2018-12-18T03:02:20.918Z,14.63
2018-12-18T03:04:48.371Z,13.20
2018-12-18T03:07:19.033Z,15.37
2018-12-18T03:09:46.488Z,16.20
2018-12-18T03:12:19.735Z,18.93
2018-12-18T03:14:53.204Z,14.10
2018-12-18T03:17:24.071Z,19.80
2018-12-18T03:19:54.621Z,14.57
2018-12-18T03:22:28.189Z,18.47
2018-12-18T03:25:01.922Z,15.07
2018-12-18T03:27:32.686Z,13.00
2018-12-18T03:30:06.293Z,15.87
2018-12-18T03:32:35.794Z,20.30
2018-12-18T03:35:03.638Z,13.93
2018-12-18T03:37:34.383Z,14.47
2018-12-18T03:40:06.203Z,16.30
2018-12-18T03:42:39.745Z,17.10
2018-12-18T03:45:11.417Z,14.57
2018-12-18T03:47:38.877Z,17.80
2018-12-18T03:50:10.088Z,18.77
2018-12-18T03:52:43.330Z,19.83
2018-12-18T03:55:17.133Z,17.40
2018-12-18T03:57:50.570Z,18.27
2018-12-18T04:00:21.624Z,14.67
2018-12-18T04:02:49.067Z,20.87
2018-12-18T04:05:16.560Z,14.37
2018-12-18T04:07:49.677Z,15.80
2018-12-18T04:10:20.446Z,12.93
2018-12-18T04:12:53.919Z,16.07
2018-12-18T04:15:24.680Z,12.57
2018-12-18T04:17:58.399Z,13.33
2018-12-18T04:20:25.848Z,10.60
2018-12-18T04:22:56.733Z,12.70
2018-12-18T04:25:27.467Z,15.67
2018-12-18T04:28:01.028Z,11.20
2018-12-18T04:30:34.568Z,9.13
2018-12-18T04:33:02.021Z,13.00
2018-12-18T04:35:32.818Z,11.77
2018-12-18T04:38:00.241Z,15.60
2018-12-18T04:40:27.679Z,14.67
2018-12-18T04:42:55.112Z,12.03
2018-12-18T04:45:26.009Z,10.57
2018-12-18T04:47:54.843Z,15.20
2018-12-18T04:50:28.427Z,11.27
2018-12-18T04:52:59.377Z,9.10
2018-12-18T04:55:30.750Z,11.07
2018-12-18T04:58:04.346Z,11.07
2018-12-18T05:00:37.768Z,11.63
2018-12-18T05:03:11.378Z,13.30
2018-12-18T05:05:45.043Z,13.03
2018-12-18T05:08:18.850Z,14.80
2018-12-18T05:10:53.455Z,17.23
2018-12-18T05:13:27.208Z,17.40
2018-12-18T05:15:56.174Z,15.10
2018-12-18T05:18:29.796Z,14.43
2018-12-18T05:20:57.226Z,22.07
2018-12-18T05:23:24.664Z,18.30
2018-12-18T05:25:55.730Z,14.43
2018-12-18T05:28:23.176Z,11.90
2018-12-18T05:30:50.636Z,14.90
2018-12-18T05:33:18.170Z,14.17
2018-12-18T05:35:48.739Z,13.13
2018-12-18T05:38:16.184Z,11.73
2018-12-18T05:40:43.642Z,16.07
2018-12-18T05:43:11.088Z,15.33
2018-12-18T05:45:41.452Z,17.63
2018-12-18T05:48:08.899Z,14.20
2018-12-18T05:50:36.338Z,17.30
2018-12-18T05:53:03.787Z,17.03
2018-12-18T05:55:37.229Z,16.63
2018-12-18T05:58:04.665Z,15.10
2018-12-18T06:00:32.096Z,17.97
2018-12-18T06:02:59.533Z,16.57
2018-12-18T06:05:30.413Z,18.13
2018-12-18T06:08:03.834Z,19.37
2018-12-18T06:10:34.556Z,16.77
2018-12-18T06:13:01.985Z,17.87
2018-12-18T06:15:32.648Z,20.03
2018-12-18T06:18:00.080Z,15.03
2018-12-18T06:20:27.535Z,14.60
2018-12-18T06:22:54.967Z,14.80
2018-12-18T06:25:26.041Z,15.77
2018-12-18T06:27:59.345Z,14.23
2018-12-18T06:30:26.800Z,15.50
2018-12-18T06:32:54.248Z,14.47
2018-12-18T06:35:24.920Z,17.73
2018-12-18T06:37:55.666Z,14.17
2018-12-18T06:40:26.464Z,14.03
2018-12-18T06:43:00.011Z,13.87
2018-12-18T06:45:30.758Z,14.20
2018-12-18T06:47:58.200Z,18.33
2018-12-18T06:50:25.655Z,13.87
2018-12-18T06:52:53.083Z,13.83
2018-12-18T06:55:20.531Z,10.83
2018-12-18T06:57:53.908Z,11.53
2018-12-18T07:00:24.855Z,11.70
2018-12-18T07:02:58.374Z,34.50
2018-12-18T07:05:29.124Z,43.63
2018-12-18T07:07:57.562Z,54.30
2018-12-18T07:10:25.286Z,8.90
2018-12-18T07:12:52.777Z,8.63
2018-12-18T07:15:25.988Z,11.07
2018-12-18T07:17:53.432Z,12.47
2018-12-18T07:20:20.885Z,12.23
2018-12-18T07:22:48.316Z,12.03
2018-12-18T07:25:15.805Z,13.30
2018-12-18T07:27:43.247Z,13.10
2018-12-18T07:30:10.751Z,10.80
2018-12-18T07:32:38.188Z,18.80
2018-12-18T07:35:05.648Z,15.27
2018-12-18T07:37:36.751Z,38.23
2018-12-18T07:40:05.277Z,23.83
2018-12-18T07:42:32.707Z,31.03
2018-12-18T07:45:00.172Z,13.27
2018-12-18T07:47:30.663Z,14.50
2018-12-18T07:49:58.119Z,9.50
2018-12-18T07:52:25.540Z,13.70
2018-12-18T07:54:52.983Z,14.97
2018-12-18T07:57:23.820Z,10.43
2018-12-18T07:59:51.294Z,10.07
2018-12-18T08:02:18.731Z,11.60
2018-12-18T08:04:46.207Z,67.03
2018-12-18T08:07:19.864Z,22.87
2018-12-18T08:09:50.819Z,12.93
2018-12-18T08:12:20.243Z,8.60
2018-12-18T08:14:54.066Z,12.83
2018-12-18T08:17:24.732Z,11.83
2018-12-18T08:19:52.181Z,9.23
2018-12-18T08:22:19.614Z,7.47
2018-12-18T08:24:47.049Z,8.83
2018-12-18T08:27:17.972Z,6.10
2018-12-18T08:29:45.450Z,9.70
2018-12-18T08:32:12.912Z,10.47
2018-12-18T08:34:40.359Z,13.30
2018-12-18T08:37:10.815Z,22.73
2018-12-18T08:39:41.612Z,19.03
2018-12-18T08:42:14.823Z,6.17
2018-12-18T08:44:45.766Z,6.03
2018-12-18T08:47:16.619Z,6.43
2018-12-18T08:49:44.091Z,7.90
2018-12-18T08:52:11.577Z,11.67
2018-12-18T08:54:39.118Z,8.20
2018-12-18T08:57:10.423Z,7.80
2018-12-18T08:59:37.861Z,8.87
2018-12-18T09:02:08.891Z,5.73
2018-12-18T09:04:42.100Z,5.07
2018-12-18T09:07:15.788Z,7.83
2018-12-18T09:09:49.363Z,5.77
2018-12-18T09:12:20.259Z,7.77
2018-12-18T09:14:56.496Z,12.03
2018-12-18T09:17:46.374Z,6.33
2018-12-18T09:20:13.971Z,4.73
2018-12-18T09:22:41.396Z,6.47
2018-12-18T09:25:08.891Z,6.27
2018-12-18T09:27:39.789Z,4.87
2018-12-18T09:30:08.696Z,7.30
2018-12-18T09:32:36.179Z,7.20
2018-12-18T09:35:04.098Z,6.23
2018-12-18T09:37:34.518Z,7.40
2018-12-18T09:40:01.957Z,6.17
2018-12-18T09:42:35.112Z,6.03
2018-12-18T09:45:02.640Z,7.27
2018-12-18T09:47:33.208Z,4.43
2018-12-18T09:50:06.464Z,6.27
2018-12-18T09:52:39.876Z,3.20
2018-12-18T09:55:08.130Z,4.97
2018-12-18T09:57:47.811Z,6.37
2018-12-18T10:00:21.076Z,5.83
2018-12-18T10:02:48.550Z,5.40
2018-12-18T10:05:15.994Z,3.13
2018-12-18T10:07:43.476Z,4.37
2018-12-18T10:10:10.908Z,5.47
2018-12-18T10:12:42.986Z,4.80
2018-12-18T10:15:10.425Z,5.83
2018-12-18T10:17:37.889Z,6.23
2018-12-18T10:20:06.484Z,3.60
2018-12-18T10:22:39.645Z,5.00
2018-12-18T10:25:07.164Z,4.03
2018-12-18T10:27:40.821Z,9.23
2018-12-18T10:30:11.847Z,7.93
2018-12-18T10:32:45.379Z,4.17
2018-12-18T10:35:16.433Z,6.80
2018-12-18T10:37:47.327Z,5.63
2018-12-18T10:40:18.051Z,2.87
2018-12-18T10:42:51.357Z,4.90
2018-12-18T10:45:18.838Z,8.07
2018-12-18T10:47:46.316Z,2.93
2018-12-18T10:50:13.828Z,5.87
2018-12-18T10:52:44.496Z,3.83
2018-12-18T10:55:18.067Z,7.23
2018-12-18T10:57:52.181Z,3.23
2018-12-18T11:00:31.442Z,3.03
2018-12-18T11:03:05.293Z,4.70
2018-12-18T11:05:36.406Z,1.90
2018-12-18T11:08:07.007Z,2.33
2018-12-18T11:10:37.641Z,3.07
2018-12-18T11:13:17.181Z,4.33
2018-12-18T11:15:50.992Z,5.03
2018-12-18T11:18:18.464Z,4.30
2018-12-18T11:20:45.929Z,5.57
2018-12-18T11:23:13.372Z,5.20
2018-12-18T11:25:43.970Z,5.93
2018-12-18T11:28:17.756Z,5.03
2018-12-18T11:30:45.163Z,5.33
2018-12-18T11:33:12.621Z,9.57
2018-12-18T11:35:43.135Z,3.53
2018-12-18T11:38:10.562Z,6.43
2018-12-18T11:40:38.087Z,7.43
2018-12-18T11:43:14.387Z,4.83
2018-12-18T11:45:45.423Z,5.20
2018-12-18T11:48:12.936Z,7.37
2018-12-18T11:50:46.405Z,18.50
2018-12-18T11:53:17.189Z,8.90
2018-12-18T11:55:47.747Z,4.07
2018-12-18T11:58:21.165Z,7.73
2018-12-18T12:00:51.938Z,4.80
2018-12-18T12:03:25.638Z,4.27
2018-12-18T12:05:59.347Z,3.67
2018-12-18T12:08:27.487Z,3.30
2018-12-18T12:10:54.953Z,4.87
2018-12-18T12:13:29.640Z,4.87
2018-12-18T12:16:03.828Z,3.33
2018-12-18T12:18:31.252Z,3.50
2018-12-18T12:20:58.683Z,5.07
2018-12-18T12:23:28.940Z,3.53
2018-12-18T12:26:03.105Z,3.63
2018-12-18T12:28:36.243Z,2.80
2018-12-18T12:31:12.548Z,2.33
2018-12-18T12:33:49.833Z,6.20
2018-12-18T12:36:29.444Z,2.63
2018-12-18T12:38:56.496Z,2.50
2018-12-18T12:41:23.955Z,3.87
2018-12-18T12:43:55.378Z,4.27
2018-12-18T12:46:31.099Z,1.90
2018-12-18T12:49:03.992Z,2.47
2018-12-18T12:51:37.711Z,2.53
2018-12-18T12:54:05.145Z,3.13
2018-12-18T12:56:35.773Z,1.67
2018-12-18T12:59:03.271Z,2.03
2018-12-18T13:01:30.758Z,3.00
2018-12-18T13:03:58.184Z,1.37
2018-12-18T13:06:29.148Z,2.23
2018-12-18T13:09:05.824Z,2.53
2018-12-18T13:11:33.324Z,2.33
2018-12-18T13:14:00.742Z,4.07
2018-12-18T13:16:31.683Z,1.57
2018-12-18T13:19:02.327Z,2.80
2018-12-18T13:21:35.889Z,1.70
2018-12-18T13:24:06.912Z,4.23
2018-12-18T13:26:38.302Z,2.60
2018-12-18T13:29:11.664Z,2.43
2018-12-18T13:31:45.336Z,4.40
2018-12-18T13:34:12.800Z,3.53
2018-12-18T13:36:43.429Z,3.37
2018-12-18T13:39:10.856Z,2.00
2018-12-18T13:41:38.363Z,2.97
2018-12-18T13:44:11.776Z,2.07
2018-12-18T13:46:42.880Z,4.13
2018-12-18T13:49:10.305Z,2.07
2018-12-18T13:51:37.768Z,2.20
2018-12-18T13:54:05.234Z,3.73
2018-12-18T13:56:35.739Z,2.13
2018-12-18T13:59:04.421Z,4.07
2018-12-18T14:01:35.228Z,5.80
2018-12-18T14:04:02.685Z,2.80
2018-12-18T14:06:33.428Z,2.70
2018-12-18T14:09:06.552Z,2.50
2018-12-18T14:11:39.836Z,3.13
2018-12-18T14:14:13.644Z,3.20
2018-12-18T14:16:44.665Z,3.30
2018-12-18T14:19:12.113Z,3.50
2018-12-18T14:21:42.654Z,1.30
2018-12-18T14:24:16.282Z,1.97
2018-12-18T14:26:49.934Z,3.73
2018-12-18T14:29:17.384Z,2.93
2018-12-18T14:31:44.835Z,3.63
2018-12-18T14:34:12.260Z,2.00
2018-12-18T14:36:43.196Z,4.37
2018-12-18T14:39:10.622Z,3.50
2018-12-18T14:41:38.103Z,2.43
2018-12-18T14:44:05.536Z,4.83
2018-12-18T14:46:36.379Z,5.13
2018-12-18T14:49:03.860Z,5.73
2018-12-18T14:51:31.324Z,4.10
2018-12-18T14:53:58.752Z,4.17
2018-12-18T14:56:29.411Z,5.03
2018-12-18T14:59:02.660Z,5.03
2018-12-18T15:01:30.148Z,18.13
2018-12-18T15:03:57.568Z,2.77
2018-12-18T15:06:28.456Z,5.47
2018-12-18T15:08:59.131Z,4.33
2018-12-18T15:11:26.602Z,3.60
2018-12-18T15:13:59.932Z,6.03
2018-12-18T15:16:30.723Z,6.20
2018-12-18T15:18:58.193Z,5.97
2018-12-18T15:21:25.696Z,4.50
2018-12-18T15:23:53.144Z,6.10
2018-12-18T15:26:26.719Z,6.63
2018-12-18T15:28:54.173Z,7.03
2018-12-18T15:31:21.640Z,9.17
2018-12-18T15:33:49.112Z,6.47
2018-12-18T15:36:19.810Z,5.03
2018-12-18T15:38:47.339Z,5.27
2018-12-18T15:41:14.779Z,6.17
2018-12-18T15:43:42.248Z,7.17
2018-12-18T15:46:12.980Z,7.00
2018-12-18T15:48:40.399Z,6.00
2018-12-18T15:51:07.951Z,6.63
2018-12-18T15:53:35.366Z,7.20
2018-12-18T15:56:05.937Z,7.83
2018-12-18T15:58:33.437Z,6.20
2018-12-18T16:01:00.910Z,7.07
2018-12-18T16:03:28.333Z,6.40
2018-12-18T16:05:59.211Z,7.30
2018-12-18T16:08:26.648Z,7.80
2018-12-18T16:10:54.067Z,8.17
2018-12-18T16:13:21.517Z,9.73
2018-12-18T16:15:52.157Z,13.27
2018-12-18T16:18:19.611Z,12.80
2018-12-18T16:20:47.039Z,14.43
2018-12-18T16:23:14.515Z,13.97
2018-12-18T16:25:45.572Z,11.70
2018-12-18T16:28:13.023Z,8.77
2018-12-18T16:30:40.484Z,8.37
2018-12-18T16:33:07.978Z,6.67
2018-12-18T16:35:46.185Z,8.13
2018-12-18T16:38:10.953Z,11.50
2018-12-18T16:40:38.441Z,13.87
2018-12-18T16:43:05.991Z,17.17
2018-12-18T16:45:37.607Z,12.43
2018-12-18T16:48:05.497Z,8.07
2018-12-18T16:50:32.963Z,7.83
2018-12-18T16:53:00.444Z,14.93
2018-12-18T16:55:31.784Z,9.17
2018-12-18T16:57:59.239Z,12.40
2018-12-18T17:00:27.927Z,6.43
2018-12-18T17:02:55.387Z,6.13
2018-12-18T17:05:25.860Z,9.80
2018-12-18T17:07:53.328Z,10.30
2018-12-18T17:10:20.839Z,11.93
2018-12-18T17:12:55.888Z,15.63
2018-12-18T17:15:29.367Z,12.20
2018-12-18T17:17:56.916Z,11.00
2018-12-18T17:20:24.349Z,8.27
2018-12-18T17:22:51.862Z,7.77
2018-12-18T17:25:19.280Z,8.63
2018-12-18T17:27:46.729Z,7.03
2018-12-18T17:30:14.168Z,9.37
2018-12-18T17:32:41.616Z,8.10
2018-12-18T17:35:09.040Z,8.90
2018-12-18T17:37:39.515Z,11.13
2018-12-18T17:40:08.035Z,12.13
2018-12-18T17:42:35.497Z,13.50
2018-12-18T17:45:03.121Z,18.00
2018-12-18T17:47:34.309Z,15.37
2018-12-18T17:50:07.796Z,11.07
2018-12-18T17:52:35.291Z,10.50
2018-12-18T17:55:02.761Z,12.83
2018-12-18T17:57:33.141Z,12.63
2018-12-18T18:00:00.618Z,21.93
2018-12-18T18:02:28.084Z,14.83
2018-12-18T18:04:55.511Z,22.70
2018-12-18T18:07:26.379Z,16.27
2018-12-18T18:09:53.812Z,17.00
2018-12-18T18:12:21.294Z,13.90
2018-12-18T18:14:49.352Z,15.37
2018-12-18T18:17:20.322Z,15.03
2018-12-18T18:19:47.820Z,15.47
2018-12-18T18:22:15.247Z,14.23
2018-12-18T18:24:42.694Z,11.90
2018-12-18T18:27:13.994Z,17.17
2018-12-18T18:29:41.449Z,19.50
2018-12-18T18:32:08.891Z,17.60
2018-12-18T18:34:36.342Z,10.70
2018-12-18T18:37:07.081Z,12.50
2018-12-18T18:39:34.548Z,14.23
2018-12-18T18:42:01.976Z,10.70
2018-12-18T18:44:29.437Z,8.70
2018-12-18T18:47:00.359Z,9.10
2018-12-18T18:49:31.741Z,9.57
2018-12-18T18:51:59.189Z,10.43
2018-12-18T18:54:26.665Z,8.17
2018-12-18T18:57:00.108Z,9.47
2018-12-18T18:59:35.511Z,11.17
2018-12-18T19:02:09.271Z,7.43
2018-12-18T19:04:36.745Z,7.80
2018-12-18T19:07:05.220Z,11.50
2018-12-18T19:09:35.986Z,12.60
2018-12-18T19:12:06.829Z,7.83
2018-12-18T19:14:40.724Z,8.77
2018-12-18T19:17:13.349Z,8.67
2018-12-18T19:19:41.842Z,8.60
2018-12-18T19:22:11.438Z,10.00
2018-12-18T19:24:38.934Z,8.47
2018-12-18T19:27:12.661Z,8.50
2018-12-18T19:29:51.346Z,6.57
2018-12-18T19:32:25.083Z,8.37
2018-12-18T19:34:52.548Z,8.27
2018-12-18T19:37:21.444Z,6.23
2018-12-18T19:39:49.065Z,8.63
2018-12-18T19:42:29.255Z,11.60
2018-12-18T19:45:07.235Z,9.00
2018-12-18T19:47:37.661Z,7.30
2018-12-18T19:50:05.168Z,8.43
2018-12-18T19:52:33.732Z,5.90
2018-12-18T19:55:03.757Z,6.67
2018-12-18T19:57:37.969Z,5.73
2018-12-18T20:00:12.799Z,6.67
2018-12-18T20:02:45.375Z,6.53
2018-12-18T20:05:18.020Z,6.40
2018-12-18T20:07:53.851Z,5.33
2018-12-18T20:10:25.926Z,7.60
2018-12-18T20:13:01.101Z,4.43
2018-12-18T20:15:36.118Z,6.03
2018-12-18T20:18:09.680Z,7.23
2018-12-18T20:20:46.588Z,5.27
2018-12-18T20:23:14.010Z,7.60
2018-12-18T20:25:45.073Z,4.93
2018-12-18T20:28:13.522Z,5.17
2018-12-18T20:30:41.753Z,5.67
2018-12-18T20:33:19.755Z,8.13
2018-12-18T20:35:48.717Z,7.13
2018-12-18T20:38:22.326Z,4.67
2018-12-18T20:40:49.911Z,4.13
2018-12-18T20:43:17.368Z,5.00
2018-12-18T20:45:57.439Z,7.63
2018-12-18T20:48:26.495Z,4.30
2018-12-18T20:50:59.889Z,4.30
2018-12-18T20:53:27.367Z,4.90
2018-12-18T20:55:58.243Z,5.23
2018-12-18T20:58:28.062Z,5.17
2018-12-18T21:00:57.646Z,4.80
2018-12-18T21:03:25.089Z,5.20
2018-12-18T21:05:58.730Z,5.60
2018-12-18T21:08:28.049Z,6.17
2018-12-18T21:10:55.488Z,6.77
2018-12-18T21:13:29.048Z,6.30
2018-12-18T21:18:37.590Z,6.27
2018-12-18T21:21:05.224Z,6.10
2018-12-18T21:23:32.668Z,4.70
2018-12-18T21:26:06.553Z,5.63
2018-12-18T21:28:40.523Z,4.87
2018-12-18T21:31:16.866Z,4.93
2018-12-18T21:33:50.619Z,5.27
2018-12-18T21:36:24.299Z,6.27
2018-12-18T21:38:58.744Z,8.43
2018-12-18T21:41:38.702Z,3.87
2018-12-18T21:44:06.191Z,4.93
2018-12-18T21:46:39.563Z,5.73
2018-12-18T21:49:07.001Z,7.00
2018-12-18T21:51:34.443Z,4.80
2018-12-18T21:54:01.900Z,7.37
2018-12-18T21:56:32.584Z,6.83
2018-12-18T21:59:00.100Z,8.13
2018-12-18T22:01:27.552Z,5.53
2018-12-18T22:03:54.994Z,4.33
2018-12-18T22:06:25.448Z,4.97
2018-12-18T22:08:52.891Z,5.17
2018-12-18T22:11:20.411Z,21.47
2018-12-18T22:13:47.912Z,6.03
2018-12-18T22:16:18.506Z,11.77
2018-12-18T22:18:45.930Z,4.77
2018-12-18T22:21:13.406Z,24.73
2018-12-18T22:23:40.832Z,4.90
2018-12-18T22:26:11.827Z,9.90
2018-12-18T22:28:39.267Z,4.47
2018-12-18T22:31:06.708Z,4.87
2018-12-18T22:33:35.007Z,5.43
2018-12-18T22:36:05.589Z,4.83
2018-12-18T22:38:33.092Z,4.30
2018-12-18T22:41:00.626Z,5.53
2018-12-18T22:43:28.051Z,5.33
2018-12-18T22:45:58.670Z,6.20
2018-12-18T22:48:26.112Z,5.87
2018-12-18T22:50:59.719Z,5.57
2018-12-18T22:53:30.408Z,4.73
2018-12-18T22:56:00.802Z,4.97
2018-12-18T22:58:28.260Z,4.20
2018-12-18T23:01:01.901Z,5.80
2018-12-18T23:03:29.367Z,6.17
2018-12-18T23:06:00.159Z,4.30
2018-12-18T23:08:27.825Z,7.00
2018-12-18T23:10:55.639Z,4.47
2018-12-18T23:13:23.477Z,4.37
2018-12-18T23:15:54.272Z,4.17
2018-12-18T23:18:21.712Z,5.20
2018-12-18T23:20:49.161Z,3.37
2018-12-18T23:23:16.631Z,7.00
2018-12-18T23:25:48.091Z,6.43
2018-12-18T23:28:15.536Z,4.43
2018-12-18T23:30:43.062Z,3.53
2018-12-18T23:33:10.579Z,7.37
2018-12-18T23:35:41.768Z,7.80
2018-12-18T23:38:09.236Z,7.23
2018-12-18T23:40:36.671Z,6.30
2018-12-18T23:43:04.146Z,8.13
2018-12-18T23:45:38.503Z,6.80
2018-12-18T23:48:05.955Z,6.20
2018-12-18T23:50:33.408Z,7.30
2018-12-18T23:53:00.833Z,6.57
2018-12-18T23:55:31.904Z,7.53
2018-12-18T23:57:59.323Z,7.43
